createdAt,value
2019-05-11T00:05:04.790Z,99928.38
2019-05-11T00:10:09.237Z,99942.22
2019-05-11T00:15:13.785Z,99945.73
2019-05-11T00:20:18.158Z,99943.11
2019-05-11T00:25:22.507Z,99946.59
2019-05-11T00:30:26.883Z,99957.84
2019-05-11T00:35:31.380Z,99950.86
2019-05-11T00:40:35.782Z,99929.94
2019-05-11T00:45:40.113Z,99910.17
2019-05-11T00:50:44.460Z,99898.55
2019-05-11T00:55:48.876Z,99894.53
2019-05-11T01:00:53.209Z,99888.62
2019-05-11T01:05:57.567Z,99887.77
2019-05-11T01:11:02.301Z,99889.72
2019-05-11T01:16:06.685Z,99887.37
2019-05-11T01:21:11.102Z,99886.52
2019-05-11T01:26:15.470Z,99877.31
2019-05-11T01:31:19.914Z,99867.34
2019-05-11T01:36:24.301Z,99878.31
2019-05-11T01:41:28.698Z,99870.34
2019-05-11T01:46:33.047Z,99874.84
2019-05-11T01:51:37.443Z,99881.61
2019-05-11T01:56:41.808Z,99899.05
2019-05-11T02:01:46.186Z,99892.55
2019-05-11T02:06:50.532Z,99874.48
2019-05-11T02:11:54.858Z,99874.48
2019-05-11T02:16:59.222Z,99882.73
2019-05-11T02:22:03.559Z,99872.56
2019-05-11T02:27:08.024Z,99859.29
2019-05-11T02:32:12.461Z,99857.30
2019-05-11T02:37:16.824Z,99849.73
2019-05-11T02:42:21.192Z,99841.87
2019-05-11T02:47:25.564Z,99836.75
2019-05-11T02:52:30.759Z,99843.89
2019-05-11T02:57:35.109Z,99834.23
2019-05-11T03:02:39.481Z,99839.73
2019-05-11T03:07:43.872Z,99849.59
2019-05-11T03:12:48.188Z,99849.30
2019-05-11T03:17:52.530Z,99838.30
2019-05-11T03:22:56.939Z,99835.28
2019-05-11T03:28:01.313Z,99844.63
2019-05-11T03:33:05.756Z,99849.55
2019-05-11T03:38:11.074Z,99843.96
2019-05-11T03:43:15.415Z,99838.67
2019-05-11T03:48:19.772Z,99846.19
2019-05-11T03:53:24.145Z,99850.16
2019-05-11T03:58:28.501Z,99848.98
2019-05-11T04:03:32.840Z,99854.02
2019-05-11T04:08:37.218Z,99848.67
2019-05-11T04:13:41.557Z,99848.08
2019-05-11T04:18:46.027Z,99843.72
2019-05-11T04:23:50.416Z,99842.19
2019-05-11T04:28:55.834Z,99838.60
2019-05-11T04:34:00.197Z,99842.70
2019-05-11T04:39:06.494Z,99838.08
2019-05-11T04:44:10.857Z,99828.44
2019-05-11T04:49:16.432Z,99819.98
2019-05-11T04:54:20.824Z,99824.58
2019-05-11T04:59:25.258Z,99825.23
2019-05-11T05:04:29.636Z,99840.87
2019-05-11T05:09:41.960Z,99832.02
2019-05-11T05:14:40.080Z,99821.13
2019-05-11T05:19:44.443Z,99804.41
2019-05-11T05:24:49.154Z,99817.81
2019-05-11T05:29:54.477Z,99804.39
2019-05-11T05:34:58.840Z,99802.63
2019-05-11T05:40:03.252Z,99801.91
2019-05-11T05:45:09.213Z,99804.89
2019-05-11T05:50:14.576Z,99797.64
2019-05-11T05:55:19.004Z,99789.07
2019-05-11T06:00:23.519Z,99776.02
2019-05-11T06:05:27.899Z,99773.53
2019-05-11T06:10:32.253Z,99768.54
2019-05-11T06:15:36.603Z,99772.55
2019-05-11T06:20:40.978Z,99778.11
2019-05-11T06:25:45.333Z,99773.71
2019-05-11T06:30:49.696Z,99774.45
2019-05-11T06:35:54.067Z,99759.09
2019-05-11T06:40:58.414Z,99758.67
2019-05-11T06:46:02.752Z,99757.20
2019-05-11T06:51:07.082Z,99748.66
2019-05-11T06:56:11.475Z,99735.51
2019-05-11T07:01:15.887Z,99734.81
2019-05-11T07:06:20.243Z,99727.66
2019-05-11T07:11:24.659Z,99728.42
2019-05-11T07:16:29.012Z,99733.44
2019-05-11T07:21:34.429Z,99736.93
2019-05-11T07:26:38.779Z,99731.25
2019-05-11T07:31:45.386Z,99722.52
2019-05-11T07:36:49.825Z,99725.48
2019-05-11T07:41:54.193Z,99725.42
2019-05-11T07:46:58.823Z,99721.38
2019-05-11T07:52:03.306Z,99721.16
2019-05-11T07:57:08.753Z,99721.03
2019-05-11T08:02:13.118Z,99725.32
2019-05-11T08:07:18.102Z,99728.20
2019-05-11T08:12:22.659Z,99739.73
2019-05-11T08:17:28.607Z,99745.79
2019-05-11T08:22:33.234Z,99747.62
2019-05-11T08:27:37.932Z,99749.73
2019-05-11T08:32:42.400Z,99751.89
2019-05-11T08:37:47.924Z,99747.11
2019-05-11T08:42:52.379Z,99750.91
2019-05-11T08:47:57.900Z,99754.34
2019-05-11T08:53:02.462Z,99762.03
2019-05-11T08:58:08.520Z,99757.63
2019-05-11T09:03:13.958Z,99757.63
2019-05-11T09:08:18.942Z,99758.36
2019-05-11T09:13:23.404Z,99760.25
2019-05-11T09:18:28.115Z,99752.09
2019-05-11T09:23:37.630Z,99747.03
2019-05-11T09:28:39.646Z,99742.48
2019-05-11T09:33:44.152Z,99738.43
2019-05-11T09:38:49.173Z,99731.88
2019-05-11T09:43:53.563Z,99732.72
2019-05-11T09:48:59.050Z,99743.80
2019-05-11T09:54:03.559Z,99739.84
2019-05-11T09:59:08.852Z,99752.59
2019-05-11T10:04:13.440Z,99762.42
2019-05-11T10:09:18.601Z,99768.73
2019-05-11T10:14:23.202Z,99776.41
2019-05-11T10:19:28.467Z,99766.97
2019-05-11T10:24:32.996Z,99759.13
2019-05-11T10:29:38.201Z,99757.04
2019-05-11T10:34:42.786Z,99757.01
2019-05-11T10:39:48.846Z,99759.20
2019-05-11T10:44:53.377Z,99752.10
2019-05-11T10:49:58.049Z,99737.45
2019-05-11T10:55:02.848Z,99731.41
2019-05-11T11:00:10.853Z,99715.31
2019-05-11T11:05:15.368Z,99708.61
2019-05-11T11:10:19.780Z,99693.18
2019-05-11T11:15:24.301Z,99678.97
2019-05-11T11:20:28.654Z,99678.05
2019-05-11T11:25:33.095Z,99672.75
2019-05-11T11:30:37.935Z,99662.83
2019-05-11T11:35:42.490Z,99668.15
2019-05-11T11:40:48.218Z,99654.23
2019-05-11T11:45:52.825Z,99653.03
2019-05-11T11:50:58.557Z,99642.92
2019-05-11T11:56:02.976Z,99640.83
2019-05-11T12:01:08.129Z,99631.91
2019-05-11T12:06:12.740Z,99630.28
2019-05-11T12:11:18.674Z,99630.83
2019-05-11T12:16:23.275Z,99636.08
2019-05-11T12:21:27.931Z,99638.01
2019-05-11T12:26:33.797Z,99634.38
2019-05-11T12:31:39.271Z,99640.00
2019-05-11T12:36:43.672Z,99634.22
2019-05-11T12:41:50.018Z,99626.77
2019-05-11T12:46:58.174Z,99629.75
2019-05-11T12:52:02.097Z,99630.42
2019-05-11T12:57:07.893Z,99638.16
2019-05-11T13:02:12.455Z,99642.98
2019-05-11T13:07:19.533Z,99643.23
2019-05-11T13:12:22.856Z,99650.34
2019-05-11T13:17:36.672Z,99650.87
2019-05-11T13:22:33.282Z,99642.75
2019-05-11T13:27:38.672Z,99642.18
2019-05-11T13:32:44.221Z,99641.53
2019-05-11T13:37:48.780Z,99645.28
2019-05-11T13:42:53.226Z,99652.13
2019-05-11T13:47:59.260Z,99649.03
2019-05-11T13:53:03.949Z,99638.48
2019-05-11T13:58:09.309Z,99639.83
2019-05-11T14:03:13.728Z,99644.34
2019-05-11T14:08:18.798Z,99638.15
2019-05-11T14:13:29.931Z,99624.48
2019-05-11T14:18:34.452Z,99639.66
2019-05-11T14:23:38.980Z,99637.96
2019-05-11T14:28:43.435Z,99637.28
2019-05-11T14:33:49.255Z,99635.58
2019-05-11T14:38:57.799Z,99643.91
2019-05-11T14:44:08.799Z,99653.19
2019-05-11T14:49:18.463Z,99639.43
2019-05-11T14:54:24.725Z,99631.14
2019-05-11T14:59:32.522Z,99632.41
2019-05-11T15:04:42.378Z,99625.83
2019-05-11T15:09:48.318Z,99642.94
2019-05-11T15:14:53.637Z,99648.12
2019-05-11T15:19:59.182Z,99670.39
2019-05-11T15:25:04.826Z,99669.66
2019-05-11T15:30:09.558Z,99675.67
2019-05-11T15:35:14.405Z,99675.32
2019-05-11T15:40:20.893Z,99670.25
2019-05-11T15:45:27.537Z,99668.98
2019-05-11T15:50:31.380Z,99667.26
2019-05-11T15:55:38.529Z,99662.16
2019-05-11T16:00:41.912Z,99651.18
2019-05-11T16:05:47.881Z,99660.27
2019-05-11T16:10:52.452Z,99664.62
2019-05-11T16:15:57.717Z,99683.49
2019-05-11T16:21:02.293Z,99698.37
2019-05-11T16:26:08.512Z,99709.91
2019-05-11T16:31:12.982Z,99727.89
2019-05-11T16:36:18.054Z,99739.02
2019-05-11T16:41:22.625Z,99743.38
2019-05-11T16:46:28.372Z,99742.49
2019-05-11T16:51:33.072Z,99745.16
2019-05-11T16:56:38.328Z,99757.79
2019-05-11T17:01:43.300Z,99761.66
2019-05-11T17:06:48.656Z,99759.34
2019-05-11T17:11:53.265Z,99763.64
2019-05-11T17:16:58.552Z,99774.24
2019-05-11T17:22:03.150Z,99779.72
2019-05-11T17:27:08.853Z,99790.14
2019-05-11T17:32:13.713Z,99793.44
2019-05-11T17:37:18.443Z,99792.55
2019-05-11T17:42:23.791Z,99799.48
2019-05-11T17:47:28.320Z,99804.44
2019-05-11T17:52:32.695Z,99812.86
2019-05-11T17:57:38.235Z,99831.27
2019-05-11T18:02:43.698Z,99843.14
2019-05-11T18:07:48.031Z,99853.33
2019-05-11T18:12:52.416Z,99869.77
2019-05-11T18:17:58.843Z,99877.73
2019-05-11T18:23:03.391Z,99898.89
2019-05-11T18:28:07.735Z,99918.65
2019-05-11T18:33:12.106Z,99926.88
2019-05-11T18:38:17.849Z,99936.03
2019-05-11T18:43:22.323Z,99942.06
2019-05-11T18:48:28.991Z,99961.83
2019-05-11T18:53:33.058Z,99974.62
2019-05-11T18:58:38.413Z,99989.84
2019-05-11T19:03:42.878Z,99999.30
2019-05-11T19:08:47.903Z,100009.52
2019-05-11T19:13:52.402Z,100018.10
2019-05-11T19:18:58.571Z,100019.47
2019-05-11T19:24:05.966Z,100014.02
2019-05-11T19:29:09.161Z,100013.77
2019-05-11T19:34:13.637Z,100019.81
2019-05-11T19:39:19.344Z,100014.45
2019-05-11T19:44:23.960Z,100027.58
2019-05-11T19:49:28.341Z,100031.92
2019-05-11T19:54:33.772Z,100037.70
2019-05-11T19:59:38.829Z,100049.50
2019-05-11T20:04:43.229Z,100056.09
2019-05-11T20:09:47.612Z,100065.02
2019-05-11T20:14:52.906Z,100084.54
2019-05-11T20:19:58.077Z,100109.34
2019-05-11T20:25:04.432Z,100114.87
2019-05-11T20:30:08.803Z,100128.69
2019-05-11T20:35:13.438Z,100136.72
2019-05-11T20:40:18.483Z,100149.17
2019-05-11T20:45:23.029Z,100168.17
2019-05-11T20:50:27.423Z,100184.70
2019-05-11T20:55:31.930Z,100198.04
2019-05-11T21:00:38.324Z,100209.76
2019-05-11T21:05:42.464Z,100206.75
2019-05-11T21:10:49.008Z,100217.39
2019-05-11T21:15:53.042Z,100224.47
2019-05-11T21:20:57.766Z,100240.42
2019-05-11T21:26:02.206Z,100242.33
2019-05-11T21:31:08.001Z,100255.88
2019-05-11T21:36:12.744Z,100267.30
2019-05-11T21:41:17.115Z,100270.10
2019-05-11T21:46:21.517Z,100286.50
2019-05-11T21:51:28.351Z,100295.03
2019-05-11T21:56:31.944Z,100303.17
2019-05-11T22:01:38.341Z,100299.17
2019-05-11T22:06:45.395Z,100294.26
2019-05-11T22:11:49.788Z,100317.47
2019-05-11T22:16:55.427Z,100324.55
2019-05-11T22:22:00.384Z,100332.95
2019-05-11T22:27:04.734Z,100348.93
2019-05-11T22:32:09.145Z,100368.70
2019-05-11T22:37:13.523Z,100378.17
2019-05-11T22:42:18.428Z,100383.81
2019-05-11T22:47:22.974Z,100389.28
2019-05-11T22:52:36.181Z,100404.41
2019-05-11T22:57:33.517Z,100420.38
2019-05-11T23:02:38.259Z,100418.89
2019-05-11T23:07:42.905Z,100421.13
2019-05-11T23:12:48.252Z,100432.34
2019-05-11T23:17:53.529Z,100476.56
2019-05-11T23:23:01.474Z,100474.61
2019-05-11T23:28:04.561Z,100495.49
2019-05-11T23:33:09.008Z,100511.23
2019-05-11T23:38:13.916Z,100518.91
2019-05-11T23:43:19.404Z,100528.73
2019-05-11T23:48:23.821Z,100537.06
2019-05-11T23:53:31.801Z,100540.08
2019-05-11T23:58:38.963Z,100549.95
